Staples, MN

12:03 PM CST on January 31, 2015 (GMT -0600)
Staples Municipal | Change Station
CLOSE
Current Station
Airport
Location: Staples,
Elevation: 1286 ft
Nearby Weather Stations

Elev 1286 ft 46.38 °N, 94.81 °W | Updated 9 minutes ago

Scattered Clouds
Scattered Clouds
21 °F
Feels Like 8 °F
N
15
Wind Variable Wind from North

Today
High -- | Low -- °F
--% Chance of Precip.
Yesterday
High -- | Low -- °F
Precip. -- in
7:43 AM 5:21 PM
Waxing Gibbous, 91% visible
Pressure 30.24 in
Visibility 10.0 miles
Clouds Scattered Clouds 11000 ft
Windchill 8 °F
Dew Point 5 °F
Humidity 50%
Rainfall 0.00 in
Snow Depth Not available.
UV 2 out of 12
Pollen .10 out of 12
Air Quality Not available.
Flu Activity Not available.
METAR KSAZ 311754Z AUTO 35013KT 10SM SCT110 M06/M15 A3024 RMK AO2

More Conditions Fewer Conditions

Pressure 30.24 in
Visibility 10.0 miles
Clouds Scattered Clouds 11000 ft
Windchill 8 °F
Dew Point 5 °F
Humidity 50%
Rainfall 0.00 in
Snow Depth Not available.
UV 2 out of 12
Pollen .10 out of 12
Air Quality Not available.
Flu Activity Not available.
METAR KSAZ 311754Z AUTO 35013KT 10SM SCT110 M06/M15 A3024 RMK AO2

More Conditions Fewer Conditions

10-Day Weather Forecast

Almanac

Astronomy

Jan. 31, 2015 Rise Set
Actual Time
Civil Twilight
Nautical Twilight
Astronomical Twilight
Moon
Length of Visible Light
Length of Day
Tomorrow will be .
, % of the Moon is Illuminated

Today's Extremes

State Highs State Lows

Community

WunderPhotos

Upload Photos

1,792,142 photos uploaded!

WunderBlogs® & News

Nearby

Air Quality

  Air Quality AQ Index Pollutant
Not available.

Snow Depth

Station Depth Elevation

Earthquake Activity

City Distance Mag. Time & Date
Minimum magnitude displayed is 2.5.

Coastal Water Temperatures

Place Temperature

Nearby Weather Stations